<?xml version="1.0" encoding="UTF-8" standalone="no" ?>
<gpx xmlns="http://www.topografix.com/GPX/1/1" xmlns:xsi="http://www.w3.org/2001/XMLSchema-instance" xsi:schemaLocation="http://www.topografix.com/GPX/1/1 http://www.topografix.com/GPX/1/1/gpx.xsd" version="1.1" creator="VisuGPX - https://www.visugpx.com">
  <metadata>
    <name>Cyclo : Un joli petit tour au pays de la motte/turriers</name>
    <desc><![CDATA[De La motte monter à Melves puis suivre la Durance jusqu\'à l\'aérodrome de Vaumeilh . A vaumeilh prendre la petite route qui monte à clans puis descend vers Nibles d\'où on rejoint la Motte . Un tour agréable de reprise ou quand il ne fait pas trop chaud , dans un joli paysage de provence emaillé de belles vieilles fermes ]]></desc>
  </metadata>
  <trk>
    <name><![CDATA[Tracé 002]]></name>
    <trkseg>
      <trkpt lat="44.37447" lon="5.95082">
        <ele>584.6188965</ele>
        <time>2012-02-28T12:57:01Z</time>
      </trkpt>
      <trkpt lat="44.3735" lon="5.94946">
        <ele>586.5415039</ele>
        <time>2012-02-28T12:56:31Z</time>
      </trkpt>
      <trkpt lat="44.37313" lon="5.94926">
        <ele>585.0996094</ele>
        <time>2012-02-28T12:56:13Z</time>
      </trkpt>
      <trkpt lat="44.37156" lon="5.94894">
        <ele>574.5251465</ele>
        <time>2012-02-28T12:55:02Z</time>
      </trkpt>
      <trkpt lat="44.37091" lon="5.94802">
        <ele>568.2763672</ele>
        <time>2012-02-28T12:54:21Z</time>
      </trkpt>
      <trkpt lat="44.36983" lon="5.94702">
        <ele>561.5473633</ele>
        <time>2012-02-28T12:53:30Z</time>
      </trkpt>
      <trkpt lat="44.36939" lon="5.94685">
        <ele>558.6633301</ele>
        <time>2012-02-28T12:53:15Z</time>
      </trkpt>
      <trkpt lat="44.36767" lon="5.94714">
        <ele>559.6247559</ele>
        <time>2012-02-28T12:52:45Z</time>
      </trkpt>
      <trkpt lat="44.36752" lon="5.94716">
        <ele>558.6633301</ele>
        <time>2012-02-28T12:52:43Z</time>
      </trkpt>
      <trkpt lat="44.36611" lon="5.94677">
        <ele>564.4311523</ele>
        <time>2012-02-28T12:52:28Z</time>
      </trkpt>
      <trkpt lat="44.36454" lon="5.94666">
        <ele>571.6408691</ele>
        <time>2012-02-28T12:52:03Z</time>
      </trkpt>
      <trkpt lat="44.36357" lon="5.94584">
        <ele>571.1604004</ele>
        <time>2012-02-28T12:51:28Z</time>
      </trkpt>
      <trkpt lat="44.36277" lon="5.94549">
        <ele>562.5085449</ele>
        <time>2012-02-28T12:50:54Z</time>
      </trkpt>
      <trkpt lat="44.36205" lon="5.94545">
        <ele>561.5473633</ele>
        <time>2012-02-28T12:50:44Z</time>
      </trkpt>
      <trkpt lat="44.36173" lon="5.94501">
        <ele>564.4311523</ele>
        <time>2012-02-28T12:50:39Z</time>
      </trkpt>
      <trkpt lat="44.36127" lon="5.94479">
        <ele>570.1989746</ele>
        <time>2012-02-28T12:50:33Z</time>
      </trkpt>
      <trkpt lat="44.36029" lon="5.94454">
        <ele>575.0058594</ele>
        <time>2012-02-28T12:50:17Z</time>
      </trkpt>
      <trkpt lat="44.3599" lon="5.94437">
        <ele>574.5251465</ele>
        <time>2012-02-28T12:50:10Z</time>
      </trkpt>
      <trkpt lat="44.35927" lon="5.94348">
        <ele>575.4863281</ele>
        <time>2012-02-28T12:49:56Z</time>
      </trkpt>
      <trkpt lat="44.35888" lon="5.94316">
        <ele>576.4477539</ele>
        <time>2012-02-28T12:49:50Z</time>
      </trkpt>
      <trkpt lat="44.3586" lon="5.94269">
        <ele>577.4091797</ele>
        <time>2012-02-28T12:49:44Z</time>
      </trkpt>
      <trkpt lat="44.35783" lon="5.94187">
        <ele>579.8122559</ele>
        <time>2012-02-28T12:49:28Z</time>
      </trkpt>
      <trkpt lat="44.35568" lon="5.9406">
        <ele>579.331543</ele>
        <time>2012-02-28T12:48:37Z</time>
      </trkpt>
      <trkpt lat="44.35432" lon="5.94037">
        <ele>575.4863281</ele>
        <time>2012-02-28T12:48:09Z</time>
      </trkpt>
      <trkpt lat="44.35202" lon="5.9389">
        <ele>580.7736816</ele>
        <time>2012-02-28T12:47:30Z</time>
      </trkpt>
      <trkpt lat="44.35032" lon="5.9378">
        <ele>580.7736816</ele>
        <time>2012-02-28T12:46:56Z</time>
      </trkpt>
      <trkpt lat="44.34805" lon="5.93633">
        <ele>578.8510742</ele>
        <time>2012-02-28T12:45:57Z</time>
      </trkpt>
      <trkpt lat="44.34639" lon="5.93451">
        <ele>575.0058594</ele>
        <time>2012-02-28T12:44:56Z</time>
      </trkpt>
      <trkpt lat="44.34533" lon="5.9349">
        <ele>570.6796875</ele>
        <time>2012-02-28T12:44:21Z</time>
      </trkpt>
      <trkpt lat="44.3449" lon="5.93525">
        <ele>568.2763672</ele>
        <time>2012-02-28T12:44:05Z</time>
      </trkpt>
      <trkpt lat="44.34414" lon="5.93508">
        <ele>567.7956543</ele>
        <time>2012-02-28T12:43:50Z</time>
      </trkpt>
      <trkpt lat="44.34413" lon="5.93468">
        <ele>569.7185059</ele>
        <time>2012-02-28T12:43:43Z</time>
      </trkpt>
      <trkpt lat="44.34447" lon="5.9338">
        <ele>573.5639648</ele>
        <time>2012-02-28T12:43:31Z</time>
      </trkpt>
      <trkpt lat="44.3443" lon="5.93278">
        <ele>577.4091797</ele>
        <time>2012-02-28T12:43:20Z</time>
      </trkpt>
      <trkpt lat="44.34403" lon="5.93242">
        <ele>577.8896484</ele>
        <time>2012-02-28T12:43:14Z</time>
      </trkpt>
      <trkpt lat="44.34313" lon="5.93207">
        <ele>579.8122559</ele>
        <time>2012-02-28T12:42:58Z</time>
      </trkpt>
      <trkpt lat="44.33884" lon="5.93043">
        <ele>582.6962891</ele>
        <time>2012-02-28T12:41:41Z</time>
      </trkpt>
      <trkpt lat="44.33706" lon="5.92858">
        <ele>581.7348633</ele>
        <time>2012-02-28T12:41:02Z</time>
      </trkpt>
      <trkpt lat="44.33637" lon="5.92737">
        <ele>582.2155762</ele>
        <time>2012-02-28T12:40:41Z</time>
      </trkpt>
      <trkpt lat="44.33484" lon="5.92514">
        <ele>579.8122559</ele>
        <time>2012-02-28T12:39:52Z</time>
      </trkpt>
      <trkpt lat="44.33182" lon="5.92316">
        <ele>578.8510742</ele>
        <time>2012-02-28T12:38:53Z</time>
      </trkpt>
      <trkpt lat="44.32952" lon="5.92138">
        <ele>579.8122559</ele>
        <time>2012-02-28T12:38:11Z</time>
      </trkpt>
      <trkpt lat="44.32863" lon="5.92105">
        <ele>581.2543945</ele>
        <time>2012-02-28T12:37:56Z</time>
      </trkpt>
      <trkpt lat="44.32695" lon="5.92101">
        <ele>584.6188965</ele>
        <time>2012-02-28T12:37:24Z</time>
      </trkpt>
      <trkpt lat="44.32317" lon="5.92103">
        <ele>579.331543</ele>
        <time>2012-02-28T12:36:02Z</time>
      </trkpt>
      <trkpt lat="44.3203" lon="5.92053">
        <ele>579.331543</ele>
        <time>2012-02-28T12:34:55Z</time>
      </trkpt>
      <trkpt lat="44.3202" lon="5.92052">
        <ele>577.8896484</ele>
        <time>2012-02-28T12:34:52Z</time>
      </trkpt>
      <trkpt lat="44.31974" lon="5.92079">
        <ele>579.8122559</ele>
        <time>2012-02-28T12:34:36Z</time>
      </trkpt>
      <trkpt lat="44.31909" lon="5.92125">
        <ele>579.331543</ele>
        <time>2012-02-28T12:34:15Z</time>
      </trkpt>
      <trkpt lat="44.31838" lon="5.92176">
        <ele>575.4863281</ele>
        <time>2012-02-28T12:33:42Z</time>
      </trkpt>
      <trkpt lat="44.31822" lon="5.92234">
        <ele>572.6025391</ele>
        <time>2012-02-28T12:33:21Z</time>
      </trkpt>
      <trkpt lat="44.31874" lon="5.92439">
        <ele>560.1052246</ele>
        <time>2012-02-28T12:32:12Z</time>
      </trkpt>
      <trkpt lat="44.31859" lon="5.9247">
        <ele>558.1828613</ele>
        <time>2012-02-28T12:32:01Z</time>
      </trkpt>
      <trkpt lat="44.31823" lon="5.92453">
        <ele>558.1828613</ele>
        <time>2012-02-28T12:31:47Z</time>
      </trkpt>
      <trkpt lat="44.31788" lon="5.92386">
        <ele>556.2600098</ele>
        <time>2012-02-28T12:31:25Z</time>
      </trkpt>
      <trkpt lat="44.31747" lon="5.92345">
        <ele>554.8178711</ele>
        <time>2012-02-28T12:31:08Z</time>
      </trkpt>
      <trkpt lat="44.31702" lon="5.9237">
        <ele>553.3759766</ele>
        <time>2012-02-28T12:30:50Z</time>
      </trkpt>
      <trkpt lat="44.31667" lon="5.92408">
        <ele>550.4921875</ele>
        <time>2012-02-28T12:30:33Z</time>
      </trkpt>
      <trkpt lat="44.31568" lon="5.92579">
        <ele>544.2436523</ele>
        <time>2012-02-28T12:29:36Z</time>
      </trkpt>
      <trkpt lat="44.31527" lon="5.92623">
        <ele>542.3209229</ele>
        <time>2012-02-28T12:29:21Z</time>
      </trkpt>
      <trkpt lat="44.31269" lon="5.92783">
        <ele>537.5142822</ele>
        <time>2012-02-28T12:27:57Z</time>
      </trkpt>
      <trkpt lat="44.31242" lon="5.92852">
        <ele>537.0336914</ele>
        <time>2012-02-28T12:27:39Z</time>
      </trkpt>
      <trkpt lat="44.31247" lon="5.92904">
        <ele>535.5915527</ele>
        <time>2012-02-28T12:27:25Z</time>
      </trkpt>
      <trkpt lat="44.31275" lon="5.92953">
        <ele>533.6689453</ele>
        <time>2012-02-28T12:27:10Z</time>
      </trkpt>
      <trkpt lat="44.31256" lon="5.93006">
        <ele>532.2270508</ele>
        <time>2012-02-28T12:26:57Z</time>
      </trkpt>
      <trkpt lat="44.31227" lon="5.93005">
        <ele>532.2270508</ele>
        <time>2012-02-28T12:26:49Z</time>
      </trkpt>
      <trkpt lat="44.3116" lon="5.92927">
        <ele>534.1496582</ele>
        <time>2012-02-28T12:26:33Z</time>
      </trkpt>
      <trkpt lat="44.31105" lon="5.92904">
        <ele>536.0723877</ele>
        <time>2012-02-28T12:26:23Z</time>
      </trkpt>
      <trkpt lat="44.31067" lon="5.92924">
        <ele>536.5531006</ele>
        <time>2012-02-28T12:26:13Z</time>
      </trkpt>
      <trkpt lat="44.30653" lon="5.93154">
        <ele>533.1883545</ele>
        <time>2012-02-28T12:24:29Z</time>
      </trkpt>
      <trkpt lat="44.30255" lon="5.93315">
        <ele>532.2270508</ele>
        <time>2012-02-28T12:23:00Z</time>
      </trkpt>
      <trkpt lat="44.30248" lon="5.93324">
        <ele>532.2270508</ele>
        <time>2012-02-28T12:22:56Z</time>
      </trkpt>
      <trkpt lat="44.30271" lon="5.93362">
        <ele>534.1496582</ele>
        <time>2012-02-28T12:22:46Z</time>
      </trkpt>
      <trkpt lat="44.30283" lon="5.93308">
        <ele>523.0898438</ele>
      </trkpt>
      <trkpt lat="44.30195" lon="5.93377">
        <ele>526.1601563</ele>
      </trkpt>
      <trkpt lat="44.30157" lon="5.93377">
        <ele>527.234375</ele>
      </trkpt>
      <trkpt lat="44.30119" lon="5.93384">
        <ele>527.8554688</ele>
      </trkpt>
      <trkpt lat="44.30081" lon="5.93384">
        <ele>527.984375</ele>
      </trkpt>
      <trkpt lat="44.3005" lon="5.93361">
        <ele>528.0273438</ele>
      </trkpt>
      <trkpt lat="44.29949" lon="5.93323">
        <ele>527.3007813</ele>
      </trkpt>
      <trkpt lat="44.29874" lon="5.93361">
        <ele>529.0273438</ele>
      </trkpt>
      <trkpt lat="44.2961" lon="5.93384">
        <ele>530.6171875</ele>
      </trkpt>
      <trkpt lat="44.2949" lon="5.93423">
        <ele>536.8164063</ele>
      </trkpt>
      <trkpt lat="44.29226" lon="5.93384">
        <ele>547.7070313</ele>
      </trkpt>
      <trkpt lat="44.29075" lon="5.93377">
        <ele>546.4960938</ele>
      </trkpt>
      <trkpt lat="44.29" lon="5.93384">
        <ele>545.8554688</ele>
      </trkpt>
      <trkpt lat="44.28924" lon="5.93423">
        <ele>546.2382813</ele>
      </trkpt>
      <trkpt lat="44.28887" lon="5.93438">
        <ele>545.8554688</ele>
      </trkpt>
      <trkpt lat="44.28585" lon="5.93469">
        <ele>546</ele>
      </trkpt>
      <trkpt lat="44.2844" lon="5.93515">
        <ele>549</ele>
      </trkpt>
      <trkpt lat="44.28396" lon="5.93515">
        <ele>549</ele>
      </trkpt>
      <trkpt lat="44.28365" lon="5.93515">
        <ele>548.671875</ele>
      </trkpt>
      <trkpt lat="44.28365" lon="5.93431">
        <ele>547.515625</ele>
      </trkpt>
      <trkpt lat="44.28327" lon="5.93446">
        <ele>548</ele>
      </trkpt>
      <trkpt lat="44.28245" lon="5.93454">
        <ele>546.9570313</ele>
      </trkpt>
      <trkpt lat="44.28126" lon="5.93454">
        <ele>543.2265625</ele>
      </trkpt>
      <trkpt lat="44.28057" lon="5.93431">
        <ele>541.0859375</ele>
      </trkpt>
      <trkpt lat="44.27994" lon="5.93392">
        <ele>539</ele>
      </trkpt>
      <trkpt lat="44.27956" lon="5.93392">
        <ele>538.5390625</ele>
      </trkpt>
      <trkpt lat="44.27824" lon="5.93308">
        <ele>535.78125</ele>
      </trkpt>
      <trkpt lat="44.27252" lon="5.93208">
        <ele>531</ele>
      </trkpt>
      <trkpt lat="44.27245" lon="5.93377">
        <ele>532.03125</ele>
      </trkpt>
      <trkpt lat="44.27271" lon="5.93546">
        <ele>535</ele>
      </trkpt>
      <trkpt lat="44.27271" lon="5.93822">
        <ele>543.5351563</ele>
      </trkpt>
      <trkpt lat="44.27283" lon="5.93868">
        <ele>547.1171875</ele>
      </trkpt>
      <trkpt lat="44.2734" lon="5.93937">
        <ele>549.9414063</ele>
      </trkpt>
      <trkpt lat="44.27352" lon="5.93991">
        <ele>555.390625</ele>
      </trkpt>
      <trkpt lat="44.27352" lon="5.94045">
        <ele>562.296875</ele>
      </trkpt>
      <trkpt lat="44.27352" lon="5.94152">
        <ele>567.4257813</ele>
      </trkpt>
      <trkpt lat="44.27327" lon="5.94252">
        <ele>573</ele>
      </trkpt>
      <trkpt lat="44.2734" lon="5.94421">
        <ele>577.6171875</ele>
      </trkpt>
      <trkpt lat="44.27396" lon="5.94498">
        <ele>577.4296875</ele>
      </trkpt>
      <trkpt lat="44.27465" lon="5.94559">
        <ele>576.8710938</ele>
      </trkpt>
      <trkpt lat="44.27509" lon="5.94636">
        <ele>578.5273438</ele>
      </trkpt>
      <trkpt lat="44.27642" lon="5.9482">
        <ele>571.4179688</ele>
      </trkpt>
      <trkpt lat="44.27742" lon="5.94989">
        <ele>566.3476563</ele>
      </trkpt>
      <trkpt lat="44.27855" lon="5.9505">
        <ele>578.3945313</ele>
      </trkpt>
      <trkpt lat="44.27887" lon="5.95066">
        <ele>580.2421875</ele>
      </trkpt>
      <trkpt lat="44.27918" lon="5.95089">
        <ele>577.96875</ele>
      </trkpt>
      <trkpt lat="44.28057" lon="5.9515">
        <ele>578.3867188</ele>
      </trkpt>
      <trkpt lat="44.28157" lon="5.95219">
        <ele>570.796875</ele>
      </trkpt>
      <trkpt lat="44.28308" lon="5.95273">
        <ele>589.8085938</ele>
      </trkpt>
      <trkpt lat="44.28377" lon="5.95342">
        <ele>604.8476563</ele>
      </trkpt>
      <trkpt lat="44.28402" lon="5.95373">
        <ele>608.3671875</ele>
      </trkpt>
      <trkpt lat="44.28428" lon="5.95403">
        <ele>608.0976563</ele>
      </trkpt>
      <trkpt lat="44.28547" lon="5.95549">
        <ele>595.8007813</ele>
      </trkpt>
      <trkpt lat="44.28673" lon="5.95626">
        <ele>599.7070313</ele>
      </trkpt>
      <trkpt lat="44.28704" lon="5.95657">
        <ele>598.7304688</ele>
      </trkpt>
      <trkpt lat="44.28892" lon="5.95725">
        <ele>611.0551758</ele>
        <time>2012-02-28T11:59:04Z</time>
      </trkpt>
      <trkpt lat="44.28833" lon="5.95697">
        <ele>607.2099609</ele>
        <time>2012-02-28T11:58:31Z</time>
      </trkpt>
      <trkpt lat="44.28828" lon="5.95787">
        <ele>605.7680664</ele>
        <time>2012-02-28T11:56:16Z</time>
      </trkpt>
      <trkpt lat="44.28804" lon="5.95826">
        <ele>605.7680664</ele>
        <time>2012-02-28T11:56:02Z</time>
      </trkpt>
      <trkpt lat="44.28791" lon="5.95821">
        <ele>606.729248</ele>
        <time>2012-02-28T11:55:56Z</time>
      </trkpt>
      <trkpt lat="44.28752" lon="5.95908">
        <ele>612.4970703</ele>
        <time>2012-02-28T11:55:35Z</time>
      </trkpt>
      <trkpt lat="44.28726" lon="5.95924">
        <ele>615.3811035</ele>
        <time>2012-02-28T11:55:27Z</time>
      </trkpt>
      <trkpt lat="44.28725" lon="5.95946">
        <ele>618.2648926</ele>
        <time>2012-02-28T11:55:19Z</time>
      </trkpt>
      <trkpt lat="44.28748" lon="5.95946">
        <ele>619.7070313</ele>
        <time>2012-02-28T11:55:14Z</time>
      </trkpt>
      <trkpt lat="44.28764" lon="5.95965">
        <ele>621.6296387</ele>
        <time>2012-02-28T11:55:08Z</time>
      </trkpt>
      <trkpt lat="44.28795" lon="5.96076">
        <ele>629.8007813</ele>
        <time>2012-02-28T11:54:47Z</time>
      </trkpt>
      <trkpt lat="44.28868" lon="5.96171">
        <ele>638.4528809</ele>
        <time>2012-02-28T11:54:29Z</time>
      </trkpt>
      <trkpt lat="44.2887" lon="5.96195">
        <ele>639.8947754</ele>
        <time>2012-02-28T11:54:24Z</time>
      </trkpt>
      <trkpt lat="44.2885" lon="5.96177">
        <ele>642.2980957</ele>
        <time>2012-02-28T11:54:17Z</time>
      </trkpt>
      <trkpt lat="44.28815" lon="5.96156">
        <ele>646.1433105</ele>
        <time>2012-02-28T11:54:10Z</time>
      </trkpt>
      <trkpt lat="44.28767" lon="5.96131">
        <ele>649.0270996</ele>
        <time>2012-02-28T11:54:01Z</time>
      </trkpt>
      <trkpt lat="44.28759" lon="5.9615">
        <ele>650.949707</ele>
        <time>2012-02-28T11:53:55Z</time>
      </trkpt>
      <trkpt lat="44.28777" lon="5.96153">
        <ele>653.3532715</ele>
        <time>2012-02-28T11:53:51Z</time>
      </trkpt>
      <trkpt lat="44.28827" lon="5.96217">
        <ele>656.2370605</ele>
        <time>2012-02-28T11:53:39Z</time>
      </trkpt>
      <trkpt lat="44.28841" lon="5.96255">
        <ele>659.6018066</ele>
        <time>2012-02-28T11:53:33Z</time>
      </trkpt>
      <trkpt lat="44.28861" lon="5.9641">
        <ele>669.2150879</ele>
        <time>2012-02-28T11:53:08Z</time>
      </trkpt>
      <trkpt lat="44.28828" lon="5.96366">
        <ele>674.5021973</ele>
        <time>2012-02-28T11:52:56Z</time>
      </trkpt>
      <trkpt lat="44.28764" lon="5.96306">
        <ele>680.2700195</ele>
        <time>2012-02-28T11:52:43Z</time>
      </trkpt>
      <trkpt lat="44.28746" lon="5.96328">
        <ele>682.6733398</ele>
        <time>2012-02-28T11:52:36Z</time>
      </trkpt>
      <trkpt lat="44.28787" lon="5.96473">
        <ele>690.3640137</ele>
        <time>2012-02-28T11:52:16Z</time>
      </trkpt>
      <trkpt lat="44.28838" lon="5.96568">
        <ele>697.0930176</ele>
        <time>2012-02-28T11:52:00Z</time>
      </trkpt>
      <trkpt lat="44.28836" lon="5.96592">
        <ele>698.5349121</ele>
        <time>2012-02-28T11:51:54Z</time>
      </trkpt>
      <trkpt lat="44.28812" lon="5.9658">
        <ele>700.9384766</ele>
        <time>2012-02-28T11:51:47Z</time>
      </trkpt>
      <trkpt lat="44.28781" lon="5.96555">
        <ele>703.8225098</ele>
        <time>2012-02-28T11:51:40Z</time>
      </trkpt>
      <trkpt lat="44.28765" lon="5.96561">
        <ele>705.2644043</ele>
        <time>2012-02-28T11:51:35Z</time>
      </trkpt>
      <trkpt lat="44.28778" lon="5.96597">
        <ele>708.6289063</ele>
        <time>2012-02-28T11:51:28Z</time>
      </trkpt>
      <trkpt lat="44.28803" lon="5.96644">
        <ele>711.5129395</ele>
        <time>2012-02-28T11:51:21Z</time>
      </trkpt>
      <trkpt lat="44.28852" lon="5.96667">
        <ele>716.800293</ele>
        <time>2012-02-28T11:51:12Z</time>
      </trkpt>
      <trkpt lat="44.28855" lon="5.96737">
        <ele>722.5681152</ele>
        <time>2012-02-28T11:51:02Z</time>
      </trkpt>
      <trkpt lat="44.28842" lon="5.96793">
        <ele>726.894043</ele>
        <time>2012-02-28T11:50:55Z</time>
      </trkpt>
      <trkpt lat="44.28857" lon="5.9689">
        <ele>733.1425781</ele>
        <time>2012-02-28T11:50:44Z</time>
      </trkpt>
      <trkpt lat="44.28872" lon="5.96918">
        <ele>735.0654297</ele>
        <time>2012-02-28T11:50:39Z</time>
      </trkpt>
      <trkpt lat="44.28941" lon="5.96927">
        <ele>738.4299316</ele>
        <time>2012-02-28T11:50:26Z</time>
      </trkpt>
      <trkpt lat="44.28948" lon="5.96948">
        <ele>740.8330078</ele>
        <time>2012-02-28T11:50:20Z</time>
      </trkpt>
      <trkpt lat="44.28924" lon="5.96963">
        <ele>742.7558594</ele>
        <time>2012-02-28T11:50:14Z</time>
      </trkpt>
      <trkpt lat="44.2889" lon="5.97028">
        <ele>748.5236816</ele>
        <time>2012-02-28T11:50:04Z</time>
      </trkpt>
      <trkpt lat="44.28887" lon="5.97067">
        <ele>749.9658203</ele>
        <time>2012-02-28T11:49:59Z</time>
      </trkpt>
      <trkpt lat="44.28964" lon="5.97207">
        <ele>761.5014648</ele>
        <time>2012-02-28T11:49:35Z</time>
      </trkpt>
      <trkpt lat="44.28967" lon="5.97141">
        <ele>764.8662109</ele>
        <time>2012-02-28T11:49:22Z</time>
      </trkpt>
      <trkpt lat="44.28987" lon="5.97124">
        <ele>766.7888184</ele>
        <time>2012-02-28T11:49:15Z</time>
      </trkpt>
      <trkpt lat="44.29068" lon="5.97243">
        <ele>777.3632813</ele>
        <time>2012-02-28T11:48:55Z</time>
      </trkpt>
      <trkpt lat="44.29081" lon="5.97352">
        <ele>784.5732422</ele>
        <time>2012-02-28T11:48:39Z</time>
      </trkpt>
      <trkpt lat="44.29123" lon="5.97352">
        <ele>787.4570313</ele>
        <time>2012-02-28T11:48:27Z</time>
      </trkpt>
      <trkpt lat="44.29165" lon="5.974">
        <ele>793.2248535</ele>
        <time>2012-02-28T11:47:11Z</time>
      </trkpt>
      <trkpt lat="44.292" lon="5.9741">
        <ele>795.1474609</ele>
        <time>2012-02-28T11:47:04Z</time>
      </trkpt>
      <trkpt lat="44.29213" lon="5.97434">
        <ele>796.1091309</ele>
        <time>2012-02-28T11:46:57Z</time>
      </trkpt>
      <trkpt lat="44.29182" lon="5.97496">
        <ele>800.4350586</ele>
        <time>2012-02-28T11:46:47Z</time>
      </trkpt>
      <trkpt lat="44.2918" lon="5.97535">
        <ele>803.3188477</ele>
        <time>2012-02-28T11:46:41Z</time>
      </trkpt>
      <trkpt lat="44.29203" lon="5.97573">
        <ele>803.3188477</ele>
        <time>2012-02-28T11:46:33Z</time>
      </trkpt>
      <trkpt lat="44.29271" lon="5.9759">
        <ele>806.2026367</ele>
        <time>2012-02-28T11:46:20Z</time>
      </trkpt>
      <trkpt lat="44.29276" lon="5.97591">
        <ele>806.2026367</ele>
        <time>2012-02-28T11:46:19Z</time>
      </trkpt>
      <trkpt lat="44.29303" lon="5.97642">
        <ele>806.6833496</ele>
        <time>2012-02-28T11:46:09Z</time>
      </trkpt>
      <trkpt lat="44.29258" lon="5.97729">
        <ele>808.605957</ele>
        <time>2012-02-28T11:45:54Z</time>
      </trkpt>
      <trkpt lat="44.29249" lon="5.97764">
        <ele>808.605957</ele>
        <time>2012-02-28T11:45:45Z</time>
      </trkpt>
      <trkpt lat="44.29271" lon="5.97895">
        <ele>808.1254883</ele>
        <time>2012-02-28T11:45:16Z</time>
      </trkpt>
      <trkpt lat="44.29263" lon="5.97962">
        <ele>809.5673828</ele>
        <time>2012-02-28T11:44:58Z</time>
      </trkpt>
      <trkpt lat="44.29271" lon="5.97997">
        <ele>809.0866699</ele>
        <time>2012-02-28T11:44:44Z</time>
      </trkpt>
      <trkpt lat="44.29304" lon="5.98002">
        <ele>806.6833496</ele>
        <time>2012-02-28T11:44:29Z</time>
      </trkpt>
      <trkpt lat="44.29301" lon="5.9805">
        <ele>804.7607422</ele>
        <time>2012-02-28T11:44:15Z</time>
      </trkpt>
      <trkpt lat="44.2934" lon="5.98095">
        <ele>806.2026367</ele>
        <time>2012-02-28T11:44:01Z</time>
      </trkpt>
      <trkpt lat="44.29286" lon="5.98137">
        <ele>804.2802734</ele>
        <time>2012-02-28T11:43:37Z</time>
      </trkpt>
      <trkpt lat="44.29274" lon="5.98163">
        <ele>802.8381348</ele>
        <time>2012-02-28T11:43:30Z</time>
      </trkpt>
      <trkpt lat="44.29295" lon="5.98205">
        <ele>804.2802734</ele>
        <time>2012-02-28T11:43:18Z</time>
      </trkpt>
      <trkpt lat="44.29291" lon="5.98249">
        <ele>801.3962402</ele>
        <time>2012-02-28T11:43:02Z</time>
      </trkpt>
      <trkpt lat="44.29258" lon="5.98372">
        <ele>802.3574219</ele>
        <time>2012-02-28T11:42:33Z</time>
      </trkpt>
      <trkpt lat="44.29234" lon="5.98412">
        <ele>802.3574219</ele>
        <time>2012-02-28T11:42:16Z</time>
      </trkpt>
      <trkpt lat="44.29194" lon="5.98469">
        <ele>796.5898438</ele>
        <time>2012-02-28T11:41:45Z</time>
      </trkpt>
      <trkpt lat="44.29212" lon="5.98595">
        <ele>787.4570313</ele>
        <time>2012-02-28T11:40:52Z</time>
      </trkpt>
      <trkpt lat="44.29181" lon="5.98643">
        <ele>784.5732422</ele>
        <time>2012-02-28T11:40:35Z</time>
      </trkpt>
      <trkpt lat="44.29118" lon="5.9867">
        <ele>784.5732422</ele>
        <time>2012-02-28T11:40:17Z</time>
      </trkpt>
      <trkpt lat="44.2905" lon="5.988">
        <ele>783.6118164</ele>
        <time>2012-02-28T11:39:48Z</time>
      </trkpt>
      <trkpt lat="44.29044" lon="5.98821">
        <ele>783.1311035</ele>
        <time>2012-02-28T11:39:44Z</time>
      </trkpt>
      <trkpt lat="44.29102" lon="5.98903">
        <ele>785.0539551</ele>
        <time>2012-02-28T11:39:23Z</time>
      </trkpt>
      <trkpt lat="44.29087" lon="5.99256">
        <ele>781.2087402</ele>
        <time>2012-02-28T11:38:17Z</time>
      </trkpt>
      <trkpt lat="44.29077" lon="5.99317">
        <ele>779.7663574</ele>
        <time>2012-02-28T11:37:58Z</time>
      </trkpt>
      <trkpt lat="44.29039" lon="5.99371">
        <ele>776.8825684</ele>
        <time>2012-02-28T11:37:35Z</time>
      </trkpt>
      <trkpt lat="44.29009" lon="5.9941">
        <ele>774.9599609</ele>
        <time>2012-02-28T11:37:17Z</time>
      </trkpt>
      <trkpt lat="44.28979" lon="5.99396">
        <ele>771.5952148</ele>
        <time>2012-02-28T11:37:00Z</time>
      </trkpt>
      <trkpt lat="44.28918" lon="5.99352">
        <ele>768.7114258</ele>
        <time>2012-02-28T11:36:38Z</time>
      </trkpt>
      <trkpt lat="44.28845" lon="5.99228">
        <ele>775.9211426</ele>
        <time>2012-02-28T11:36:15Z</time>
      </trkpt>
      <trkpt lat="44.28809" lon="5.99222">
        <ele>776.4018555</ele>
        <time>2012-02-28T11:36:06Z</time>
      </trkpt>
      <trkpt lat="44.28626" lon="5.99393">
        <ele>782.1699219</ele>
        <time>2012-02-28T11:35:20Z</time>
      </trkpt>
      <trkpt lat="44.28582" lon="5.9942">
        <ele>780.7280273</ele>
        <time>2012-02-28T11:35:07Z</time>
      </trkpt>
      <trkpt lat="44.28506" lon="5.99392">
        <ele>789.3796387</ele>
        <time>2012-02-28T11:34:51Z</time>
      </trkpt>
      <trkpt lat="44.28295" lon="5.99574">
        <ele>789.3796387</ele>
        <time>2012-02-28T11:33:49Z</time>
      </trkpt>
      <trkpt lat="44.28251" lon="5.9964">
        <ele>791.782959</ele>
        <time>2012-02-28T11:33:11Z</time>
      </trkpt>
      <trkpt lat="44.28208" lon="5.99698">
        <ele>789.3796387</ele>
        <time>2012-02-28T11:32:41Z</time>
      </trkpt>
      <trkpt lat="44.28187" lon="5.99789">
        <ele>786.4958496</ele>
        <time>2012-02-28T11:32:10Z</time>
      </trkpt>
      <trkpt lat="44.2809" lon="5.99807">
        <ele>777.84375</ele>
        <time>2012-02-28T11:31:17Z</time>
      </trkpt>
      <trkpt lat="44.28017" lon="5.99867">
        <ele>774.9599609</ele>
        <time>2012-02-28T11:30:36Z</time>
      </trkpt>
      <trkpt lat="44.27937" lon="5.9991">
        <ele>769.1921387</ele>
        <time>2012-02-28T11:29:31Z</time>
      </trkpt>
      <trkpt lat="44.27907" lon="5.9991">
        <ele>765.8276367</ele>
        <time>2012-02-28T11:26:16Z</time>
      </trkpt>
      <trkpt lat="44.2789" lon="5.99975">
        <ele>757.65625</ele>
        <time>2012-02-28T11:25:23Z</time>
      </trkpt>
      <trkpt lat="44.27838" lon="6.00062">
        <ele>751.4077148</ele>
        <time>2012-02-28T11:24:35Z</time>
      </trkpt>
      <trkpt lat="44.27821" lon="6.00123">
        <ele>745.6396484</ele>
        <time>2012-02-28T11:24:02Z</time>
      </trkpt>
      <trkpt lat="44.27799" lon="6.00145">
        <ele>742.7558594</ele>
        <time>2012-02-28T11:23:44Z</time>
      </trkpt>
      <trkpt lat="44.27844" lon="6.00127">
        <ele>736.0266113</ele>
        <time>2012-02-28T11:23:05Z</time>
      </trkpt>
      <trkpt lat="44.27844" lon="6.00141">
        <ele>734.1040039</ele>
        <time>2012-02-28T11:22:55Z</time>
      </trkpt>
      <trkpt lat="44.27729" lon="6.00273">
        <ele>716.800293</ele>
        <time>2012-02-28T11:21:21Z</time>
      </trkpt>
      <trkpt lat="44.27699" lon="6.00384">
        <ele>707.6677246</ele>
        <time>2012-02-28T11:20:22Z</time>
      </trkpt>
      <trkpt lat="44.27668" lon="6.0046">
        <ele>699.4963379</ele>
        <time>2012-02-28T11:19:37Z</time>
      </trkpt>
      <trkpt lat="44.27612" lon="6.00526">
        <ele>690.3640137</ele>
        <time>2012-02-28T11:18:47Z</time>
      </trkpt>
      <trkpt lat="44.27572" lon="6.00604">
        <ele>682.6733398</ele>
        <time>2012-02-28T11:18:06Z</time>
      </trkpt>
      <trkpt lat="44.27549" lon="6.00633">
        <ele>680.7507324</ele>
        <time>2012-02-28T11:17:49Z</time>
      </trkpt>
      <trkpt lat="44.27477" lon="6.00673">
        <ele>676.9055176</ele>
        <time>2012-02-28T11:17:06Z</time>
      </trkpt>
      <trkpt lat="44.27487" lon="6.00735">
        <ele>670.1762695</ele>
        <time>2012-02-28T11:16:32Z</time>
      </trkpt>
      <trkpt lat="44.27562" lon="6.00753">
        <ele>659.1210938</ele>
        <time>2012-02-28T11:15:36Z</time>
      </trkpt>
      <trkpt lat="44.27613" lon="6.00789">
        <ele>652.8725586</ele>
        <time>2012-02-28T11:14:56Z</time>
      </trkpt>
      <trkpt lat="44.27641" lon="6.00803">
        <ele>647.5852051</ele>
        <time>2012-02-28T11:14:33Z</time>
      </trkpt>
      <trkpt lat="44.27642" lon="6.00816">
        <ele>645.6625977</ele>
        <time>2012-02-28T11:14:24Z</time>
      </trkpt>
      <trkpt lat="44.276" lon="6.00836">
        <ele>639.8947754</ele>
        <time>2012-02-28T11:13:52Z</time>
      </trkpt>
      <trkpt lat="44.27602" lon="6.00844">
        <ele>638.9335938</ele>
        <time>2012-02-28T11:13:48Z</time>
      </trkpt>
      <trkpt lat="44.27655" lon="6.00851">
        <ele>631.2429199</ele>
        <time>2012-02-28T11:13:06Z</time>
      </trkpt>
      <trkpt lat="44.27757" lon="6.00685">
        <ele>609.6132813</ele>
        <time>2012-02-28T11:11:09Z</time>
      </trkpt>
      <trkpt lat="44.27768" lon="6.00688">
        <ele>607.6906738</ele>
        <time>2012-02-28T11:11:03Z</time>
      </trkpt>
      <trkpt lat="44.27749" lon="6.0074">
        <ele>602.4030762</ele>
        <time>2012-02-28T11:10:35Z</time>
      </trkpt>
      <trkpt lat="44.27738" lon="6.00881">
        <ele>589.4255371</ele>
        <time>2012-02-28T11:09:38Z</time>
      </trkpt>
      <trkpt lat="44.27704" lon="6.01002">
        <ele>586.5415039</ele>
        <time>2012-02-28T11:09:03Z</time>
      </trkpt>
      <trkpt lat="44.27708" lon="6.01034">
        <ele>585.5800781</ele>
        <time>2012-02-28T11:03:54Z</time>
      </trkpt>
      <trkpt lat="44.27755" lon="6.01045">
        <ele>587.0219727</ele>
        <time>2012-02-28T11:03:40Z</time>
      </trkpt>
      <trkpt lat="44.2785" lon="6.01143">
        <ele>592.7902832</ele>
        <time>2012-02-28T11:03:20Z</time>
      </trkpt>
      <trkpt lat="44.28233" lon="6.01532">
        <ele>599.0385742</ele>
        <time>2012-02-28T11:01:56Z</time>
      </trkpt>
      <trkpt lat="44.28236" lon="6.01583">
        <ele>599.0385742</ele>
        <time>2012-02-28T11:01:48Z</time>
      </trkpt>
      <trkpt lat="44.28207" lon="6.0163">
        <ele>599.0385742</ele>
        <time>2012-02-28T11:01:40Z</time>
      </trkpt>
      <trkpt lat="44.28205" lon="6.01694">
        <ele>600.9611816</ele>
        <time>2012-02-28T11:01:32Z</time>
      </trkpt>
      <trkpt lat="44.28333" lon="6.01885">
        <ele>611.5358887</ele>
        <time>2012-02-28T11:01:09Z</time>
      </trkpt>
      <trkpt lat="44.28397" lon="6.0196">
        <ele>614.4196777</ele>
        <time>2012-02-28T11:00:56Z</time>
      </trkpt>
      <trkpt lat="44.28758" lon="6.02374">
        <ele>622.5910645</ele>
        <time>2012-02-28T10:59:31Z</time>
      </trkpt>
      <trkpt lat="44.28812" lon="6.02454">
        <ele>623.0717773</ele>
        <time>2012-02-28T10:59:13Z</time>
      </trkpt>
      <trkpt lat="44.28853" lon="6.02479">
        <ele>623.5524902</ele>
        <time>2012-02-28T10:59:02Z</time>
      </trkpt>
      <trkpt lat="44.28951" lon="6.02512">
        <ele>621.6296387</ele>
        <time>2012-02-28T10:58:29Z</time>
      </trkpt>
      <trkpt lat="44.2919" lon="6.02695">
        <ele>611.5358887</ele>
        <time>2012-02-28T10:57:02Z</time>
      </trkpt>
      <trkpt lat="44.2928" lon="6.02707">
        <ele>612.4970703</ele>
        <time>2012-02-28T10:56:47Z</time>
      </trkpt>
      <trkpt lat="44.29519" lon="6.02818">
        <ele>616.822998</ele>
        <time>2012-02-28T10:56:08Z</time>
      </trkpt>
      <trkpt lat="44.29537" lon="6.0283">
        <ele>616.822998</ele>
        <time>2012-02-28T10:56:05Z</time>
      </trkpt>
      <trkpt lat="44.2961" lon="6.02923">
        <ele>618.2648926</ele>
        <time>2012-02-28T10:55:50Z</time>
      </trkpt>
      <trkpt lat="44.29695" lon="6.03116">
        <ele>622.1103516</ele>
        <time>2012-02-28T10:55:25Z</time>
      </trkpt>
      <trkpt lat="44.29772" lon="6.03205">
        <ele>624.032959</ele>
        <time>2012-02-28T10:55:07Z</time>
      </trkpt>
      <trkpt lat="44.2986" lon="6.03256">
        <ele>624.032959</ele>
        <time>2012-02-28T10:54:48Z</time>
      </trkpt>
      <trkpt lat="44.30545" lon="6.03416">
        <ele>629.8007813</ele>
        <time>2012-02-28T10:52:45Z</time>
      </trkpt>
      <trkpt lat="44.3063" lon="6.03481">
        <ele>631.2429199</ele>
        <time>2012-02-28T10:52:28Z</time>
      </trkpt>
      <trkpt lat="44.30713" lon="6.03518">
        <ele>633.1652832</ele>
        <time>2012-02-28T10:52:12Z</time>
      </trkpt>
      <trkpt lat="44.3136" lon="6.03534">
        <ele>644.7011719</ele>
        <time>2012-02-28T10:50:27Z</time>
      </trkpt>
      <trkpt lat="44.31483" lon="6.035">
        <ele>647.5852051</ele>
        <time>2012-02-28T10:50:08Z</time>
      </trkpt>
      <trkpt lat="44.31591" lon="6.03411">
        <ele>649.5078125</ele>
        <time>2012-02-28T10:49:47Z</time>
      </trkpt>
      <trkpt lat="44.31876" lon="6.03077">
        <ele>654.795166</ele>
        <time>2012-02-28T10:48:46Z</time>
      </trkpt>
      <trkpt lat="44.31975" lon="6.03011">
        <ele>657.1984863</ele>
        <time>2012-02-28T10:48:30Z</time>
      </trkpt>
      <trkpt lat="44.32273" lon="6.03023">
        <ele>662.9663086</ele>
        <time>2012-02-28T10:47:50Z</time>
      </trkpt>
      <trkpt lat="44.32428" lon="6.02984">
        <ele>668.734375</ele>
        <time>2012-02-28T10:47:32Z</time>
      </trkpt>
      <trkpt lat="44.32573" lon="6.02936">
        <ele>672.098877</ele>
        <time>2012-02-28T10:47:12Z</time>
      </trkpt>
      <trkpt lat="44.32805" lon="6.02929">
        <ele>678.3474121</ele>
        <time>2012-02-28T10:46:43Z</time>
      </trkpt>
      <trkpt lat="44.3297" lon="6.02931">
        <ele>681.2314453</ele>
        <time>2012-02-28T10:46:19Z</time>
      </trkpt>
      <trkpt lat="44.33108" lon="6.02908">
        <ele>684.1154785</ele>
        <time>2012-02-28T10:46:00Z</time>
      </trkpt>
      <trkpt lat="44.33306" lon="6.02814">
        <ele>690.3640137</ele>
        <time>2012-02-28T10:45:33Z</time>
      </trkpt>
      <trkpt lat="44.33537" lon="6.02787">
        <ele>691.8059082</ele>
        <time>2012-02-28T10:44:55Z</time>
      </trkpt>
      <trkpt lat="44.33864" lon="6.02814">
        <ele>700.4580078</ele>
        <time>2012-02-28T10:44:07Z</time>
      </trkpt>
      <trkpt lat="44.33926" lon="6.02809">
        <ele>699.4963379</ele>
        <time>2012-02-28T10:43:54Z</time>
      </trkpt>
      <trkpt lat="44.34018" lon="6.02796">
        <ele>700.4580078</ele>
        <time>2012-02-28T10:43:38Z</time>
      </trkpt>
      <trkpt lat="44.34114" lon="6.02754">
        <ele>702.861084</ele>
        <time>2012-02-28T10:43:20Z</time>
      </trkpt>
      <trkpt lat="44.34102" lon="6.02725">
        <ele>704.7836914</ele>
        <time>2012-02-28T10:43:12Z</time>
      </trkpt>
      <trkpt lat="44.34071" lon="6.02705">
        <ele>705.7451172</ele>
        <time>2012-02-28T10:43:07Z</time>
      </trkpt>
      <trkpt lat="44.33975" lon="6.02663">
        <ele>708.6289063</ele>
        <time>2012-02-28T10:42:52Z</time>
      </trkpt>
      <trkpt lat="44.33904" lon="6.02673">
        <ele>710.0708008</ele>
        <time>2012-02-28T10:42:39Z</time>
      </trkpt>
      <trkpt lat="44.33778" lon="6.02618">
        <ele>709.1096191</ele>
        <time>2012-02-28T10:42:14Z</time>
      </trkpt>
      <trkpt lat="44.33738" lon="6.02561">
        <ele>710.0708008</ele>
        <time>2012-02-28T10:42:05Z</time>
      </trkpt>
      <trkpt lat="44.33723" lon="6.02489">
        <ele>711.5129395</ele>
        <time>2012-02-28T10:41:57Z</time>
      </trkpt>
      <trkpt lat="44.33728" lon="6.02436">
        <ele>712.954834</ele>
        <time>2012-02-28T10:41:52Z</time>
      </trkpt>
      <trkpt lat="44.33744" lon="6.02397">
        <ele>714.3967285</ele>
        <time>2012-02-28T10:41:47Z</time>
      </trkpt>
      <trkpt lat="44.33769" lon="6.02376">
        <ele>715.8388672</ele>
        <time>2012-02-28T10:41:43Z</time>
      </trkpt>
      <trkpt lat="44.33775" lon="6.02335">
        <ele>717.7614746</ele>
        <time>2012-02-28T10:41:39Z</time>
      </trkpt>
      <trkpt lat="44.33792" lon="6.02295">
        <ele>718.7229004</ele>
        <time>2012-02-28T10:41:35Z</time>
      </trkpt>
      <trkpt lat="44.33766" lon="6.02224">
        <ele>724.4907227</ele>
        <time>2012-02-28T10:41:27Z</time>
      </trkpt>
      <trkpt lat="44.33737" lon="6.02205">
        <ele>727.8552246</ele>
        <time>2012-02-28T10:41:21Z</time>
      </trkpt>
      <trkpt lat="44.33727" lon="6.02226">
        <ele>729.2971191</ele>
        <time>2012-02-28T10:41:18Z</time>
      </trkpt>
      <trkpt lat="44.3371" lon="6.02199">
        <ele>733.1425781</ele>
        <time>2012-02-28T10:41:11Z</time>
      </trkpt>
      <trkpt lat="44.33698" lon="6.02175">
        <ele>735.5458984</ele>
        <time>2012-02-28T10:41:07Z</time>
      </trkpt>
      <trkpt lat="44.33629" lon="6.02191">
        <ele>742.7558594</ele>
        <time>2012-02-28T10:40:57Z</time>
      </trkpt>
      <trkpt lat="44.33606" lon="6.02164">
        <ele>745.6396484</ele>
        <time>2012-02-28T10:40:53Z</time>
      </trkpt>
      <trkpt lat="44.33585" lon="6.02097">
        <ele>752.8496094</ele>
        <time>2012-02-28T10:40:46Z</time>
      </trkpt>
      <trkpt lat="44.3357" lon="6.02066">
        <ele>754.291748</ele>
        <time>2012-02-28T10:40:43Z</time>
      </trkpt>
      <trkpt lat="44.33514" lon="6.02013">
        <ele>760.5400391</ele>
        <time>2012-02-28T10:40:34Z</time>
      </trkpt>
      <trkpt lat="44.33478" lon="6.01805">
        <ele>775.9211426</ele>
        <time>2012-02-28T10:40:15Z</time>
      </trkpt>
      <trkpt lat="44.33501" lon="6.01734">
        <ele>781.689209</ele>
        <time>2012-02-28T10:40:06Z</time>
      </trkpt>
      <trkpt lat="44.33474" lon="6.01721">
        <ele>786.9763184</ele>
        <time>2012-02-28T10:39:58Z</time>
      </trkpt>
      <trkpt lat="44.33446" lon="6.01754">
        <ele>790.8215332</ele>
        <time>2012-02-28T10:39:53Z</time>
      </trkpt>
      <trkpt lat="44.33417" lon="6.018">
        <ele>793.7055664</ele>
        <time>2012-02-28T10:39:44Z</time>
      </trkpt>
      <trkpt lat="44.3336" lon="6.01788">
        <ele>799.4736328</ele>
        <time>2012-02-28T10:39:36Z</time>
      </trkpt>
      <trkpt lat="44.33337" lon="6.01761">
        <ele>801.8769531</ele>
        <time>2012-02-28T10:39:32Z</time>
      </trkpt>
      <trkpt lat="44.3333" lon="6.0169">
        <ele>805.2414551</ele>
        <time>2012-02-28T10:39:25Z</time>
      </trkpt>
      <trkpt lat="44.3333" lon="6.01608">
        <ele>807.6447754</ele>
        <time>2012-02-28T10:39:16Z</time>
      </trkpt>
      <trkpt lat="44.33351" lon="6.01187">
        <ele>812.9321289</ele>
        <time>2012-02-28T10:38:20Z</time>
      </trkpt>
      <trkpt lat="44.3336" lon="6.01096">
        <ele>811.0092773</ele>
        <time>2012-02-28T10:37:58Z</time>
      </trkpt>
      <trkpt lat="44.33387" lon="6.0103">
        <ele>808.1254883</ele>
        <time>2012-02-28T10:37:38Z</time>
      </trkpt>
      <trkpt lat="44.33425" lon="6.00981">
        <ele>806.6833496</ele>
        <time>2012-02-28T10:37:22Z</time>
      </trkpt>
      <trkpt lat="44.33536" lon="6.00904">
        <ele>803.7995605</ele>
        <time>2012-02-28T10:36:46Z</time>
      </trkpt>
      <trkpt lat="44.3361" lon="6.00886">
        <ele>801.8769531</ele>
        <time>2012-02-28T10:36:26Z</time>
      </trkpt>
      <trkpt lat="44.3375" lon="6.00796">
        <ele>799.9543457</ele>
        <time>2012-02-28T10:35:58Z</time>
      </trkpt>
      <trkpt lat="44.33925" lon="6.00635">
        <ele>802.8381348</ele>
        <time>2012-02-28T10:35:35Z</time>
      </trkpt>
      <trkpt lat="44.33984" lon="6.00607">
        <ele>805.2414551</ele>
        <time>2012-02-28T10:35:28Z</time>
      </trkpt>
      <trkpt lat="44.34034" lon="6.00525">
        <ele>808.1254883</ele>
        <time>2012-02-28T10:35:19Z</time>
      </trkpt>
      <trkpt lat="44.34091" lon="6.00409">
        <ele>811.4899902</ele>
        <time>2012-02-28T10:35:06Z</time>
      </trkpt>
      <trkpt lat="44.34197" lon="6.00328">
        <ele>813.8933105</ele>
        <time>2012-02-28T10:34:50Z</time>
      </trkpt>
      <trkpt lat="44.3423" lon="6.00262">
        <ele>816.7773438</ele>
        <time>2012-02-28T10:34:42Z</time>
      </trkpt>
      <trkpt lat="44.3426" lon="6.0024">
        <ele>818.2192383</ele>
        <time>2012-02-28T10:34:35Z</time>
      </trkpt>
      <trkpt lat="44.3434" lon="6.00269">
        <ele>815.3354492</ele>
        <time>2012-02-28T10:34:17Z</time>
      </trkpt>
      <trkpt lat="44.34414" lon="6.00221">
        <ele>817.7385254</ele>
        <time>2012-02-28T10:34:08Z</time>
      </trkpt>
      <trkpt lat="44.34602" lon="6.00041">
        <ele>822.0644531</ele>
        <time>2012-02-28T10:33:41Z</time>
      </trkpt>
      <trkpt lat="44.34796" lon="5.99764">
        <ele>832.1584473</ele>
        <time>2012-02-28T10:33:13Z</time>
      </trkpt>
      <trkpt lat="44.3487" lon="5.99711">
        <ele>836.484375</ele>
        <time>2012-02-28T10:33:03Z</time>
      </trkpt>
      <trkpt lat="44.34933" lon="5.99618">
        <ele>840.3295898</ele>
        <time>2012-02-28T10:32:48Z</time>
      </trkpt>
      <trkpt lat="44.3496" lon="5.99574">
        <ele>839.848877</ele>
        <time>2012-02-28T10:32:33Z</time>
      </trkpt>
      <trkpt lat="44.35082" lon="5.99491">
        <ele>835.0424805</ele>
        <time>2012-02-28T10:29:24Z</time>
      </trkpt>
      <trkpt lat="44.35113" lon="5.99435">
        <ele>836.484375</ele>
        <time>2012-02-28T10:29:16Z</time>
      </trkpt>
      <trkpt lat="44.35137" lon="5.99282">
        <ele>839.848877</ele>
        <time>2012-02-28T10:28:55Z</time>
      </trkpt>
      <trkpt lat="44.352" lon="5.99167">
        <ele>842.2521973</ele>
        <time>2012-02-28T10:28:21Z</time>
      </trkpt>
      <trkpt lat="44.35221" lon="5.99135">
        <ele>840.8100586</ele>
        <time>2012-02-28T10:26:52Z</time>
      </trkpt>
      <trkpt lat="44.35415" lon="5.99104">
        <ele>831.1972656</ele>
        <time>2012-02-28T10:25:51Z</time>
      </trkpt>
      <trkpt lat="44.35595" lon="5.98985">
        <ele>838.4069824</ele>
        <time>2012-02-28T10:25:27Z</time>
      </trkpt>
      <trkpt lat="44.35752" lon="5.98805">
        <ele>850.9040527</ele>
        <time>2012-02-28T10:25:06Z</time>
      </trkpt>
      <trkpt lat="44.35798" lon="5.98776">
        <ele>854.2687988</ele>
        <time>2012-02-28T10:24:59Z</time>
      </trkpt>
      <trkpt lat="44.35816" lon="5.98754">
        <ele>855.2299805</ele>
        <time>2012-02-28T10:24:54Z</time>
      </trkpt>
      <trkpt lat="44.35985" lon="5.98668">
        <ele>851.3847656</ele>
        <time>2012-02-28T10:24:01Z</time>
      </trkpt>
      <trkpt lat="44.36051" lon="5.9854">
        <ele>848.0202637</ele>
        <time>2012-02-28T10:23:23Z</time>
      </trkpt>
      <trkpt lat="44.36115" lon="5.98507">
        <ele>842.2521973</ele>
        <time>2012-02-28T10:23:03Z</time>
      </trkpt>
      <trkpt lat="44.36138" lon="5.98457">
        <ele>843.2133789</ele>
        <time>2012-02-28T10:22:58Z</time>
      </trkpt>
      <trkpt lat="44.36184" lon="5.98399">
        <ele>847.0588379</ele>
        <time>2012-02-28T10:22:51Z</time>
      </trkpt>
      <trkpt lat="44.36212" lon="5.98381">
        <ele>849.9428711</ele>
        <time>2012-02-28T10:22:47Z</time>
      </trkpt>
      <trkpt lat="44.36289" lon="5.9835">
        <ele>851.8654785</ele>
        <time>2012-02-28T10:22:37Z</time>
      </trkpt>
      <trkpt lat="44.36348" lon="5.98371">
        <ele>857.1525879</ele>
        <time>2012-02-28T10:22:29Z</time>
      </trkpt>
      <trkpt lat="44.36409" lon="5.98417">
        <ele>860.0366211</ele>
        <time>2012-02-28T10:22:18Z</time>
      </trkpt>
      <trkpt lat="44.36474" lon="5.98461">
        <ele>858.5944824</ele>
        <time>2012-02-28T10:22:02Z</time>
      </trkpt>
      <trkpt lat="44.36512" lon="5.98433">
        <ele>861.9594727</ele>
        <time>2012-02-28T10:21:57Z</time>
      </trkpt>
      <trkpt lat="44.36535" lon="5.98395">
        <ele>864.3625488</ele>
        <time>2012-02-28T10:21:52Z</time>
      </trkpt>
      <trkpt lat="44.36556" lon="5.98312">
        <ele>867.246582</ele>
        <time>2012-02-28T10:21:40Z</time>
      </trkpt>
      <trkpt lat="44.36576" lon="5.98243">
        <ele>867.246582</ele>
        <time>2012-02-28T10:20:54Z</time>
      </trkpt>
      <trkpt lat="44.36656" lon="5.98237">
        <ele>862.9206543</ele>
        <time>2012-02-28T10:20:14Z</time>
      </trkpt>
      <trkpt lat="44.3667" lon="5.98181">
        <ele>861.9594727</ele>
        <time>2012-02-28T10:19:54Z</time>
      </trkpt>
      <trkpt lat="44.36672" lon="5.97982">
        <ele>850.423584</ele>
        <time>2012-02-28T10:18:36Z</time>
      </trkpt>
      <trkpt lat="44.36582" lon="5.97788">
        <ele>836.0036621</ele>
        <time>2012-02-28T10:17:04Z</time>
      </trkpt>
      <trkpt lat="44.36639" lon="5.97838">
        <ele>831.6777344</ele>
        <time>2012-02-28T10:16:26Z</time>
      </trkpt>
      <trkpt lat="44.36653" lon="5.97827">
        <ele>829.755127</ele>
        <time>2012-02-28T10:16:19Z</time>
      </trkpt>
      <trkpt lat="44.36595" lon="5.97748">
        <ele>823.9870605</ele>
        <time>2012-02-28T10:15:36Z</time>
      </trkpt>
      <trkpt lat="44.36605" lon="5.97732">
        <ele>822.545166</ele>
        <time>2012-02-28T10:15:27Z</time>
      </trkpt>
      <trkpt lat="44.36691" lon="5.9778">
        <ele>819.1806641</ele>
        <time>2012-02-28T10:14:45Z</time>
      </trkpt>
      <trkpt lat="44.36711" lon="5.97752">
        <ele>818.6999512</ele>
        <time>2012-02-28T10:14:33Z</time>
      </trkpt>
      <trkpt lat="44.36693" lon="5.97643">
        <ele>813.4128418</ele>
        <time>2012-02-28T10:13:49Z</time>
      </trkpt>
      <trkpt lat="44.3669" lon="5.97372">
        <ele>798.9929199</ele>
        <time>2012-02-28T10:12:02Z</time>
      </trkpt>
      <trkpt lat="44.36626" lon="5.97029">
        <ele>789.8603516</ele>
        <time>2012-02-28T10:10:18Z</time>
      </trkpt>
      <trkpt lat="44.36582" lon="5.96598">
        <ele>786.0151367</ele>
        <time>2012-02-28T10:08:36Z</time>
      </trkpt>
      <trkpt lat="44.36586" lon="5.96541">
        <ele>786.0151367</ele>
        <time>2012-02-28T10:08:19Z</time>
      </trkpt>
      <trkpt lat="44.36567" lon="5.96396">
        <ele>775.4404297</ele>
        <time>2012-02-28T10:07:13Z</time>
      </trkpt>
      <trkpt lat="44.36614" lon="5.96347">
        <ele>769.6728516</ele>
        <time>2012-02-28T10:06:37Z</time>
      </trkpt>
      <trkpt lat="44.36627" lon="5.96309">
        <ele>767.2695313</ele>
        <time>2012-02-28T10:06:18Z</time>
      </trkpt>
      <trkpt lat="44.36641" lon="5.96279">
        <ele>764.385498</ele>
        <time>2012-02-28T10:06:01Z</time>
      </trkpt>
      <trkpt lat="44.3673" lon="5.96234">
        <ele>756.6948242</ele>
        <time>2012-02-28T10:05:02Z</time>
      </trkpt>
      <trkpt lat="44.36755" lon="5.9622">
        <ele>753.8110352</ele>
        <time>2012-02-28T10:04:45Z</time>
      </trkpt>
      <trkpt lat="44.36777" lon="5.96172">
        <ele>750.4465332</ele>
        <time>2012-02-28T10:04:20Z</time>
      </trkpt>
      <trkpt lat="44.36805" lon="5.96179">
        <ele>746.6010742</ele>
        <time>2012-02-28T10:03:59Z</time>
      </trkpt>
      <trkpt lat="44.3681" lon="5.96227">
        <ele>743.717041</ele>
        <time>2012-02-28T10:03:38Z</time>
      </trkpt>
      <trkpt lat="44.36817" lon="5.96231">
        <ele>742.7558594</ele>
        <time>2012-02-28T10:03:33Z</time>
      </trkpt>
      <trkpt lat="44.36851" lon="5.96199">
        <ele>738.9106445</ele>
        <time>2012-02-28T10:03:11Z</time>
      </trkpt>
      <trkpt lat="44.36809" lon="5.96113">
        <ele>733.623291</ele>
        <time>2012-02-28T10:02:31Z</time>
      </trkpt>
      <trkpt lat="44.36822" lon="5.96021">
        <ele>728.3359375</ele>
        <time>2012-02-28T10:01:53Z</time>
      </trkpt>
      <trkpt lat="44.36811" lon="5.95971">
        <ele>725.4519043</ele>
        <time>2012-02-28T10:01:32Z</time>
      </trkpt>
      <trkpt lat="44.36838" lon="5.95936">
        <ele>722.0874023</ele>
        <time>2012-02-28T10:01:10Z</time>
      </trkpt>
      <trkpt lat="44.36864" lon="5.95929">
        <ele>720.1647949</ele>
        <time>2012-02-28T10:00:53Z</time>
      </trkpt>
      <trkpt lat="44.36957" lon="5.95916">
        <ele>711.9936523</ele>
        <time>2012-02-28T10:00:00Z</time>
      </trkpt>
      <trkpt lat="44.3705" lon="5.95895">
        <ele>702.861084</ele>
        <time>2012-02-28T09:59:08Z</time>
      </trkpt>
      <trkpt lat="44.36998" lon="5.95997">
        <ele>700.4580078</ele>
        <time>2012-02-28T09:58:26Z</time>
      </trkpt>
      <trkpt lat="44.37003" lon="5.96044">
        <ele>697.5737305</ele>
        <time>2012-02-28T09:58:08Z</time>
      </trkpt>
      <trkpt lat="44.37071" lon="5.96156">
        <ele>690.3640137</ele>
        <time>2012-02-28T09:57:11Z</time>
      </trkpt>
      <trkpt lat="44.37087" lon="5.96162">
        <ele>686.9992676</ele>
        <time>2012-02-28T09:57:01Z</time>
      </trkpt>
      <trkpt lat="44.37066" lon="5.9606">
        <ele>682.192627</ele>
        <time>2012-02-28T09:56:20Z</time>
      </trkpt>
      <trkpt lat="44.37123" lon="5.96015">
        <ele>676.9055176</ele>
        <time>2012-02-28T09:55:44Z</time>
      </trkpt>
      <trkpt lat="44.37175" lon="5.95925">
        <ele>671.1376953</ele>
        <time>2012-02-28T09:55:00Z</time>
      </trkpt>
      <trkpt lat="44.37206" lon="5.95867">
        <ele>666.8115234</ele>
        <time>2012-02-28T09:54:31Z</time>
      </trkpt>
      <trkpt lat="44.37198" lon="5.95826">
        <ele>663.9274902</ele>
        <time>2012-02-28T09:54:14Z</time>
      </trkpt>
      <trkpt lat="44.3717" lon="5.95798">
        <ele>661.0437012</ele>
        <time>2012-02-28T09:53:57Z</time>
      </trkpt>
      <trkpt lat="44.37167" lon="5.95758">
        <ele>658.6403809</ele>
        <time>2012-02-28T09:53:41Z</time>
      </trkpt>
      <trkpt lat="44.37227" lon="5.95745">
        <ele>653.3532715</ele>
        <time>2012-02-28T09:53:07Z</time>
      </trkpt>
      <trkpt lat="44.37234" lon="5.95706">
        <ele>652.3918457</ele>
        <time>2012-02-28T09:52:53Z</time>
      </trkpt>
      <trkpt lat="44.3717" lon="5.95644">
        <ele>645.6625977</ele>
        <time>2012-02-28T09:52:07Z</time>
      </trkpt>
      <trkpt lat="44.37195" lon="5.95422">
        <ele>630.2814941</ele>
        <time>2012-02-28T09:50:41Z</time>
      </trkpt>
      <trkpt lat="44.37184" lon="5.95293">
        <ele>625.4748535</ele>
        <time>2012-02-28T09:49:58Z</time>
      </trkpt>
      <trkpt lat="44.37254" lon="5.9525">
        <ele>619.7070313</ele>
        <time>2012-02-28T09:49:20Z</time>
      </trkpt>
      <trkpt lat="44.3727" lon="5.95201">
        <ele>617.7841797</ele>
        <time>2012-02-28T09:49:00Z</time>
      </trkpt>
      <trkpt lat="44.37306" lon="5.95096">
        <ele>612.0166016</ele>
        <time>2012-02-28T09:48:18Z</time>
      </trkpt>
      <trkpt lat="44.3733" lon="5.95077">
        <ele>609.6132813</ele>
        <time>2012-02-28T09:48:02Z</time>
      </trkpt>
      <trkpt lat="44.37368" lon="5.95096">
        <ele>606.729248</ele>
        <time>2012-02-28T09:47:43Z</time>
      </trkpt>
      <trkpt lat="44.37376" lon="5.9509">
        <ele>605.2873535</ele>
        <time>2012-02-28T09:47:38Z</time>
      </trkpt>
      <trkpt lat="44.37373" lon="5.95067">
        <ele>603.8452148</ele>
        <time>2012-02-28T09:47:30Z</time>
      </trkpt>
      <trkpt lat="44.37307" lon="5.95012">
        <ele>598.0773926</ele>
        <time>2012-02-28T09:46:50Z</time>
      </trkpt>
      <trkpt lat="44.37311" lon="5.9498">
        <ele>595.6740723</ele>
        <time>2012-02-28T09:46:37Z</time>
      </trkpt>
      <trkpt lat="44.37373" lon="5.95025">
        <ele>589.90625</ele>
        <time>2012-02-28T09:46:00Z</time>
      </trkpt>
      <trkpt lat="44.37393" lon="5.95019">
        <ele>588.4643555</ele>
        <time>2012-02-28T09:45:51Z</time>
      </trkpt>
      <trkpt lat="44.37436" lon="5.95064">
        <ele>586.5415039</ele>
        <time>2012-02-28T09:45:29Z</time>
      </trkpt>
    </trkseg>
  </trk>
</gpx>